R.v. Neper — WDF6690 — position and weather

sailwx.info

Track history (hours):
 
Tides and Currents Weather Stations Pressure Air Temp Water Temp Dewpoint Dewpoint Depression Visibility Wind Speed Wind Dir Waves Ship Positions

R.v. Neper

More information available from US FCC via Universal Licensing System and Coast Guard Vessel Documentation Center.

Last reported at 2014-Jul-27 21:17 UTC. Time now 2014-Jul-30 23:19 UTC.
Position N 47°50' W 122°14'.

Length 7 m.

Type: Dredging. MMSI: 367476860.

Date/timePositionNaut miles runAvg speedWind from/ knotsBaromVisibWave heightAir tempDewpointWater temp
2014-Jul-27 21:17N 47°50' W 122°14'0 0.0
2014-Jul-27 03:32N 47°50' W 122°14'0 0.0
2014-Jul-27 02:33N 47°50' W 122°14'0 0.0
2014-Jul-27 01:57N 47°50' W 122°14'10 5.9
2014-Jul-27 00:12N 48°00' W 122°13'2 2.5
2014-Jul-26 23:30N 47°60' W 122°16'1 0.5
2014-Jul-26 22:30N 47°59' W 122°15'1 0.7
2014-Jul-26 21:28N 47°60' W 122°16'1 0.6
2014-Jul-26 20:30N 47°59' W 122°15'0 0.1
2014-Jul-26 19:33N 47°59' W 122°15'0 0.2
2014-Jul-26 18:27N 47°59' W 122°15'1 1.1
2014-Jul-26 17:11N 48°00' W 122°14'0 0.0
2014-Jul-26 16:29N 48°00' W 122°14'0 0.0
2014-Jul-26 06:29N 48°00' W 122°14'0 0.0
2014-Jul-26 05:32N 48°00' W 122°14'0 0.0
2014-Jul-26 04:32N 48°00' W 122°14'0 0.0
2014-Jul-26 03:29N 48°00' W 122°14'2 1.5
2014-Jul-26 02:19N 47°60' W 122°16'2 2.1
2014-Jul-26 01:29N 48°00' W 122°14'0 0.0
2014-Jul-26 00:33N 48°00' W 122°14'0 0.4
2014-Jul-25 23:32N 47°60' W 122°14'  
Track history (hours):
 
Tides and Currents Weather Stations Pressure Air Temp Water Temp Dewpoint Dewpoint Depression Visibility Wind Speed Wind Dir Waves Ship Positions

R.v. Neper

More information available from US FCC via Universal Licensing System and Coast Guard Vessel Documentation Center.

Last reported at 2014-Jul-27 21:17 UTC. Time now 2014-Jul-30 23:19 UTC.
Position N 47°50' W 122°14'.

Length 7 m.

Type: Dredging. MMSI: 367476860.

Date/timePositionNaut miles runAvg speedWind from/ knotsBaromVisibWave heightAir tempDewpointWater temp
2014-Jul-27 21:17N 47°50' W 122°14'0 0.0
2014-Jul-27 03:32N 47°50' W 122°14'0 0.0
2014-Jul-27 02:33N 47°50' W 122°14'0 0.0
2014-Jul-27 01:57N 47°50' W 122°14'10 5.9
2014-Jul-27 00:12N 48°00' W 122°13'2 2.5
2014-Jul-26 23:30N 47°60' W 122°16'1 0.5
2014-Jul-26 22:30N 47°59' W 122°15'1 0.7
2014-Jul-26 21:28N 47°60' W 122°16'1 0.6
2014-Jul-26 20:30N 47°59' W 122°15'0 0.1
2014-Jul-26 19:33N 47°59' W 122°15'0 0.2
2014-Jul-26 18:27N 47°59' W 122°15'1 1.1
2014-Jul-26 17:11N 48°00' W 122°14'0 0.0
2014-Jul-26 16:29N 48°00' W 122°14'0 0.0
2014-Jul-26 06:29N 48°00' W 122°14'0 0.0
2014-Jul-26 05:32N 48°00' W 122°14'0 0.0
2014-Jul-26 04:32N 48°00' W 122°14'0 0.0
2014-Jul-26 03:29N 48°00' W 122°14'2 1.5
2014-Jul-26 02:19N 47°60' W 122°16'2 2.1
2014-Jul-26 01:29N 48°00' W 122°14'0 0.0
2014-Jul-26 00:33N 48°00' W 122°14'0 0.4
2014-Jul-25 23:32N 47°60' W 122°14'  

Dump ship's entire track history